Bookmark and Share
Track history (hours):
 

Vega Desgagnes

Last reported at 2014-Apr-17 07:11 UTC. Time now 2014-Apr-19 05:04 UTC.
Position N 46°30' W 072°14'.

Length 141 m; draft 7.4 m.

Type: Ship (hazmat cat B). MMSI: 316003770.

NotesDate/timePositionNaut miles runAvg speedWind from/ knotsBaromVisibWave heightAir tempDewpointWater temp
2014-Apr-17 07:11N 46°30' W 072°14'813.4
2014-Apr-17 06:33N 46°25' W 072°23'1211.9
2014-Apr-17 05:33N 46°17' W 072°36'3812.5
2014-Apr-17 02:30N 45°51' W 073°16'1313.7
2014-Apr-17 01:33N 45°40' W 073°27'3 2.5
2014-Apr-17 00:15N 45°38' W 073°30'0 0.0
2014-Apr-16 23:33N 45°38' W 073°30'0 0.0
2014-Apr-16 22:30N 45°38' W 073°30'0 0.0
2014-Apr-16 21:30N 45°38' W 073°30'0 0.0
2014-Apr-16 17:03N 45°38' W 073°30'0 0.0
2014-Apr-16 16:21N 45°38' W 073°30'0 0.0
2014-Apr-16 14:30N 45°38' W 073°30'0 0.0
2014-Apr-16 13:33N 45°38' W 073°30'0 0.0
2014-Apr-16 12:18N 45°38' W 073°30'0 0.0
2014-Apr-16 11:33N 45°38' W 073°30'0 0.0
2014-Apr-16 10:24N 45°38' W 073°30'0 0.0
2014-Apr-16 07:24N 45°38' W 073°30'0 0.0
2014-Apr-16 06:33N 45°38' W 073°30'0 0.0
2014-Apr-16 05:12N 45°38' W 073°30'0 0.0
2014-Apr-16 04:27N 45°38' W 073°30'0 0.0
2014-Apr-16 03:33N 45°38' W 073°30'0 0.0
2014-Apr-16 02:30N 45°38' W 073°30'0 0.0
2014-Apr-16 01:24N 45°38' W 073°30'0 0.0
2014-Apr-16 00:18N 45°38' W 073°30'0 0.0
2014-Apr-15 23:30N 45°38' W 073°30'0 0.0
2014-Apr-15 22:33N 45°38' W 073°30'0 0.0
2014-Apr-15 21:33N 45°38' W 073°30'0 0.0
2014-Apr-15 20:33N 45°38' W 073°30'0 0.0
2014-Apr-15 19:33N 45°38' W 073°30'0 0.0
2014-Apr-15 18:33N 45°38' W 073°30'0 0.0
2014-Apr-15 17:33N 45°38' W 073°30'0 0.0
2014-Apr-15 16:33N 45°38' W 073°30'0 0.0
2014-Apr-15 15:33N 45°38' W 073°30'0 0.0
2014-Apr-15 14:33N 45°38' W 073°30'0 0.0
2014-Apr-15 12:34N 45°38' W 073°30'0 0.0
2014-Apr-15 11:31N 45°38' W 073°30'0 0.0
2014-Apr-15 10:31N 45°38' W 073°30'0 0.0
2014-Apr-15 09:34N 45°38' W 073°30'0 0.0
2014-Apr-15 08:34N 45°38' W 073°30'0 0.0
2014-Apr-15 06:34N 45°38' W 073°30'0 0.0
2014-Apr-15 05:34N 45°38' W 073°30'0 0.0
2014-Apr-15 03:31N 45°38' W 073°30'0 0.0
2014-Apr-15 02:34N 45°38' W 073°30'0 0.0
2014-Apr-15 01:34N 45°38' W 073°30'0 0.0
2014-Apr-15 00:31N 45°38' W 073°30'0 0.0
2014-Apr-14 23:31N 45°38' W 073°30'0 0.0
2014-Apr-14 22:34N 45°38' W 073°30'0 0.0
2014-Apr-14 21:34N 45°38' W 073°30'0 0.0
2014-Apr-14 20:31N 45°38' W 073°30'0 0.0
2014-Apr-14 19:34N 45°38' W 073°30'0 0.0
2014-Apr-14 17:34N 45°38' W 073°30'0 0.0
2014-Apr-14 16:34N 45°38' W 073°30'1 0.8
2014-Apr-14 15:32N 45°38' W 073°29'0 0.0
2014-Apr-14 14:34N 45°38' W 073°29'0 0.1
2014-Apr-14 13:34N 45°38' W 073°29'18 8.9
2014-Apr-14 11:32N 45°53' W 073°15'18 9.0
2014-Apr-14 09:31N 46°07' W 072°58'2010.2
2014-Apr-14 07:33N 46°18' W 072°34'10 9.7
2014-Apr-14 06:33N 46°25' W 072°23'1110.6
2014-Apr-14 05:31N 46°32' W 072°11'  
2014-Apr-07 19:19N 46°34' W 072°06'2413.6
2014-Apr-07 17:33N 46°19' W 072°33'1212.2
2014-Apr-07 16:34N 46°13' W 072°49'2812.9
2014-Apr-07 14:21N 45°52' W 073°16'1214.5
2014-Apr-07 13:33N 45°43' W 073°26'  

Dump ship's entire track history

sailing weather and tide predictions

Vega Desgagnes — VOCQ — position and weather